sensor_id;sensor_type;location;lat;lon;timestamp;P1;durP1;ratioP1;P2;durP2;ratioP2
27305;SDS011;14792;50.886;6.468;2023-11-19T00:00:29;1.42;;;0.60;;
27305;SDS011;14792;50.886;6.468;2023-11-19T00:03:31;1.47;;;0.70;;
27305;SDS011;14792;50.886;6.468;2023-11-19T00:06:32;2.42;;;0.40;;
27305;SDS011;14792;50.886;6.468;2023-11-19T00:09:34;3.47;;;0.50;;
27305;SDS011;14792;50.886;6.468;2023-11-19T00:12:36;1.12;;;0.50;;
27305;SDS011;14792;50.886;6.468;2023-11-19T00:15:37;0.88;;;0.40;;
27305;SDS011;14792;50.886;6.468;2023-11-19T00:18:38;1.05;;;0.37;;
27305;SDS011;14792;50.886;6.468;2023-11-19T00:21:40;2.08;;;0.33;;
27305;SDS011;14792;50.886;6.468;2023-11-19T00:24:42;0.55;;;0.40;;
27305;SDS011;14792;50.886;6.468;2023-11-19T00:27:43;0.40;;;0.30;;
27305;SDS011;14792;50.886;6.468;2023-11-19T00:30:48;0.42;;;0.33;;
27305;SDS011;14792;50.886;6.468;2023-11-19T00:33:49;3.10;;;0.40;;
27305;SDS011;14792;50.886;6.468;2023-11-19T00:36:51;1.65;;;0.28;;
27305;SDS011;14792;50.886;6.468;2023-11-19T00:39:53;1.20;;;0.30;;
27305;SDS011;14792;50.886;6.468;2023-11-19T00:42:54;1.00;;;0.40;;
27305;SDS011;14792;50.886;6.468;2023-11-19T00:45:56;0.62;;;0.30;;
27305;SDS011;14792;50.886;6.468;2023-11-19T00:48:57;1.10;;;0.65;;
27305;SDS011;14792;50.886;6.468;2023-11-19T00:51:59;0.72;;;0.50;;
27305;SDS011;14792;50.886;6.468;2023-11-19T00:55:01;0.80;;;0.50;;
27305;SDS011;14792;50.886;6.468;2023-11-19T00:58:02;3.02;;;0.90;;
27305;SDS011;14792;50.886;6.468;2023-11-19T01:01:04;3.83;;;1.00;;
27305;SDS011;14792;50.886;6.468;2023-11-19T01:04:05;1.20;;;0.75;;
27305;SDS011;14792;50.886;6.468;2023-11-19T01:07:07;1.95;;;1.00;;
27305;SDS011;14792;50.886;6.468;2023-11-19T01:10:08;3.02;;;1.02;;
27305;SDS011;14792;50.886;6.468;2023-11-19T01:13:10;3.65;;;1.52;;
27305;SDS011;14792;50.886;6.468;2023-11-19T01:16:12;3.05;;;1.40;;
27305;SDS011;14792;50.886;6.468;2023-11-19T01:19:13;3.22;;;1.05;;
27305;SDS011;14792;50.886;6.468;2023-11-19T01:22:15;4.28;;;1.25;;
27305;SDS011;14792;50.886;6.468;2023-11-19T01:25:16;2.47;;;1.20;;
27305;SDS011;14792;50.886;6.468;2023-11-19T01:28:18;7.67;;;1.65;;
27305;SDS011;14792;50.886;6.468;2023-11-19T01:31:20;6.37;;;1.52;;
27305;SDS011;14792;50.886;6.468;2023-11-19T01:34:21;5.30;;;1.22;;
27305;SDS011;14792;50.886;6.468;2023-11-19T01:37:23;7.33;;;1.60;;
27305;SDS011;14792;50.886;6.468;2023-11-19T01:40:25;7.50;;;1.52;;
27305;SDS011;14792;50.886;6.468;2023-11-19T01:43:33;7.37;;;1.60;;
27305;SDS011;14792;50.886;6.468;2023-11-19T01:46:36;6.97;;;1.60;;
27305;SDS011;14792;50.886;6.468;2023-11-19T01:49:38;7.03;;;1.77;;
27305;SDS011;14792;50.886;6.468;2023-11-19T01:52:40;7.65;;;1.75;;
27305;SDS011;14792;50.886;6.468;2023-11-19T01:55:41;9.53;;;2.37;;
27305;SDS011;14792;50.886;6.468;2023-11-19T01:58:43;7.67;;;2.08;;
27305;SDS011;14792;50.886;6.468;2023-11-19T02:01:44;15.68;;;2.67;;
27305;SDS011;14792;50.886;6.468;2023-11-19T02:04:49;9.40;;;1.70;;
27305;SDS011;14792;50.886;6.468;2023-11-19T02:07:49;9.15;;;2.12;;
27305;SDS011;14792;50.886;6.468;2023-11-19T02:10:50;10.93;;;1.95;;
27305;SDS011;14792;50.886;6.468;2023-11-19T02:13:52;9.33;;;2.12;;
27305;SDS011;14792;50.886;6.468;2023-11-19T02:16:54;10.25;;;2.20;;
27305;SDS011;14792;50.886;6.468;2023-11-19T02:19:55;11.53;;;1.92;;
27305;SDS011;14792;50.886;6.468;2023-11-19T02:22:57;10.75;;;2.08;;
27305;SDS011;14792;50.886;6.468;2023-11-19T02:29:19;16.37;;;2.27;;
27305;SDS011;14792;50.886;6.468;2023-11-19T02:32:20;11.85;;;2.55;;
27305;SDS011;14792;50.886;6.468;2023-11-19T02:35:22;15.13;;;2.27;;
27305;SDS011;14792;50.886;6.468;2023-11-19T02:38:23;9.73;;;2.30;;
27305;SDS011;14792;50.886;6.468;2023-11-19T02:41:25;9.45;;;2.33;;
27305;SDS011;14792;50.886;6.468;2023-11-19T02:44:26;7.37;;;1.70;;
27305;SDS011;14792;50.886;6.468;2023-11-19T02:47:28;12.68;;;2.00;;
27305;SDS011;14792;50.886;6.468;2023-11-19T02:50:30;19.87;;;2.50;;
27305;SDS011;14792;50.886;6.468;2023-11-19T02:53:31;16.52;;;2.75;;
27305;SDS011;14792;50.886;6.468;2023-11-19T02:56:33;13.65;;;2.67;;
27305;SDS011;14792;50.886;6.468;2023-11-19T02:59:36;11.83;;;2.35;;
27305;SDS011;14792;50.886;6.468;2023-11-19T03:02:36;11.53;;;2.17;;
27305;SDS011;14792;50.886;6.468;2023-11-19T03:05:38;12.35;;;2.40;;
27305;SDS011;14792;50.886;6.468;2023-11-19T03:08:39;12.78;;;2.33;;
27305;SDS011;14792;50.886;6.468;2023-11-19T03:11:41;14.53;;;2.58;;
27305;SDS011;14792;50.886;6.468;2023-11-19T03:14:42;14.35;;;2.50;;
27305;SDS011;14792;50.886;6.468;2023-11-19T03:17:44;14.83;;;2.50;;
27305;SDS011;14792;50.886;6.468;2023-11-19T03:20:48;11.25;;;2.10;;
27305;SDS011;14792;50.886;6.468;2023-11-19T03:23:50;6.87;;;2.00;;
27305;SDS011;14792;50.886;6.468;2023-11-19T03:26:52;11.20;;;2.33;;
27305;SDS011;14792;50.886;6.468;2023-11-19T03:29:53;16.80;;;3.45;;
27305;SDS011;14792;50.886;6.468;2023-11-19T03:32:55;8.58;;;2.37;;
27305;SDS011;14792;50.886;6.468;2023-11-19T03:35:56;12.68;;;2.70;;
27305;SDS011;14792;50.886;6.468;2023-11-19T03:38:58;16.85;;;2.92;;
27305;SDS011;14792;50.886;6.468;2023-11-19T03:42:00;13.75;;;2.30;;
27305;SDS011;14792;50.886;6.468;2023-11-19T03:45:01;12.93;;;2.33;;
27305;SDS011;14792;50.886;6.468;2023-11-19T03:48:03;15.75;;;3.67;;
27305;SDS011;14792;50.886;6.468;2023-11-19T03:51:04;14.55;;;2.87;;
27305;SDS011;14792;50.886;6.468;2023-11-19T03:54:06;13.00;;;2.75;;
27305;SDS011;14792;50.886;6.468;2023-11-19T03:57:07;14.63;;;3.25;;
27305;SDS011;14792;50.886;6.468;2023-11-19T04:00:09;21.82;;;3.65;;
27305;SDS011;14792;50.886;6.468;2023-11-19T04:03:11;20.68;;;3.87;;
27305;SDS011;14792;50.886;6.468;2023-11-19T04:06:12;18.87;;;3.17;;
27305;SDS011;14792;50.886;6.468;2023-11-19T04:09:14;24.85;;;3.90;;
27305;SDS011;14792;50.886;6.468;2023-11-19T04:12:15;20.90;;;3.65;;
27305;SDS011;14792;50.886;6.468;2023-11-19T04:15:18;25.90;;;4.70;;
27305;SDS011;14792;50.886;6.468;2023-11-19T04:18:20;19.27;;;3.67;;
27305;SDS011;14792;50.886;6.468;2023-11-19T04:21:21;16.17;;;2.80;;
27305;SDS011;14792;50.886;6.468;2023-11-19T04:24:23;17.80;;;3.47;;
27305;SDS011;14792;50.886;6.468;2023-11-19T04:27:25;20.40;;;3.30;;
27305;SDS011;14792;50.886;6.468;2023-11-19T04:30:26;11.45;;;3.22;;
27305;SDS011;14792;50.886;6.468;2023-11-19T04:33:28;18.40;;;3.52;;
27305;SDS011;14792;50.886;6.468;2023-11-19T04:36:29;17.87;;;3.47;;
27305;SDS011;14792;50.886;6.468;2023-11-19T04:39:31;20.90;;;3.42;;
27305;SDS011;14792;50.886;6.468;2023-11-19T04:42:32;18.35;;;3.00;;
27305;SDS011;14792;50.886;6.468;2023-11-19T04:45:34;13.85;;;3.60;;
27305;SDS011;14792;50.886;6.468;2023-11-19T04:48:36;13.70;;;2.95;;
27305;SDS011;14792;50.886;6.468;2023-11-19T04:51:38;21.12;;;3.08;;
27305;SDS011;14792;50.886;6.468;2023-11-19T04:54:42;21.37;;;3.85;;
27305;SDS011;14792;50.886;6.468;2023-11-19T04:57:43;25.45;;;3.00;;
27305;SDS011;14792;50.886;6.468;2023-11-19T05:00:45;11.90;;;2.98;;
27305;SDS011;14792;50.886;6.468;2023-11-19T05:03:46;28.50;;;3.60;;
27305;SDS011;14792;50.886;6.468;2023-11-19T05:06:48;19.17;;;3.72;;
27305;SDS011;14792;50.886;6.468;2023-11-19T05:09:49;25.05;;;3.87;;
27305;SDS011;14792;50.886;6.468;2023-11-19T05:12:51;18.30;;;2.92;;
27305;SDS011;14792;50.886;6.468;2023-11-19T05:15:53;19.37;;;3.33;;
27305;SDS011;14792;50.886;6.468;2023-11-19T05:18:54;20.70;;;3.45;;
27305;SDS011;14792;50.886;6.468;2023-11-19T05:21:56;20.12;;;3.17;;
27305;SDS011;14792;50.886;6.468;2023-11-19T05:24:57;23.10;;;3.77;;
27305;SDS011;14792;50.886;6.468;2023-11-19T05:27:59;21.80;;;4.03;;
27305;SDS011;14792;50.886;6.468;2023-11-19T05:31:01;26.65;;;4.20;;
27305;SDS011;14792;50.886;6.468;2023-11-19T05:34:02;22.45;;;3.83;;
27305;SDS011;14792;50.886;6.468;2023-11-19T05:37:04;19.27;;;3.30;;
27305;SDS011;14792;50.886;6.468;2023-11-19T05:40:05;27.05;;;4.20;;
27305;SDS011;14792;50.886;6.468;2023-11-19T05:43:07;27.10;;;3.85;;
27305;SDS011;14792;50.886;6.468;2023-11-19T05:46:09;21.33;;;3.60;;
27305;SDS011;14792;50.886;6.468;2023-11-19T05:49:10;17.10;;;3.77;;
27305;SDS011;14792;50.886;6.468;2023-11-19T05:52:12;22.48;;;3.72;;
27305;SDS011;14792;50.886;6.468;2023-11-19T05:55:13;24.87;;;4.35;;
27305;SDS011;14792;50.886;6.468;2023-11-19T05:58:15;22.87;;;4.42;;
27305;SDS011;14792;50.886;6.468;2023-11-19T06:01:17;25.20;;;3.80;;
27305;SDS011;14792;50.886;6.468;2023-11-19T06:04:19;21.17;;;3.80;;
27305;SDS011;14792;50.886;6.468;2023-11-19T06:07:21;25.27;;;3.67;;
27305;SDS011;14792;50.886;6.468;2023-11-19T06:10:22;21.12;;;3.77;;
27305;SDS011;14792;50.886;6.468;2023-11-19T06:13:24;32.42;;;4.83;;
27305;SDS011;14792;50.886;6.468;2023-11-19T06:16:25;28.50;;;4.47;;
27305;SDS011;14792;50.886;6.468;2023-11-19T06:19:27;26.85;;;4.80;;
27305;SDS011;14792;50.886;6.468;2023-11-19T06:22:28;18.87;;;3.30;;
27305;SDS011;14792;50.886;6.468;2023-11-19T06:25:30;22.70;;;3.37;;
27305;SDS011;14792;50.886;6.468;2023-11-19T06:28:32;25.77;;;4.50;;
27305;SDS011;14792;50.886;6.468;2023-11-19T06:31:33;25.50;;;4.72;;
27305;SDS011;14792;50.886;6.468;2023-11-19T06:34:35;30.05;;;5.30;;
27305;SDS011;14792;50.886;6.468;2023-11-19T06:37:40;22.02;;;3.92;;
27305;SDS011;14792;50.886;6.468;2023-11-19T06:40:41;25.25;;;3.87;;
27305;SDS011;14792;50.886;6.468;2023-11-19T06:43:43;27.77;;;4.45;;
27305;SDS011;14792;50.886;6.468;2023-11-19T06:46:44;32.33;;;4.50;;
27305;SDS011;14792;50.886;6.468;2023-11-19T06:49:46;18.92;;;4.20;;
27305;SDS011;14792;50.886;6.468;2023-11-19T06:52:48;21.55;;;3.77;;
27305;SDS011;14792;50.886;6.468;2023-11-19T06:55:51;20.97;;;4.03;;
27305;SDS011;14792;50.886;6.468;2023-11-19T07:01:53;20.08;;;3.77;;
27305;SDS011;14792;50.886;6.468;2023-11-19T07:04:55;24.37;;;4.65;;
27305;SDS011;14792;50.886;6.468;2023-11-19T07:07:57;28.20;;;4.50;;
27305;SDS011;14792;50.886;6.468;2023-11-19T07:10:58;28.83;;;5.33;;
27305;SDS011;14792;50.886;6.468;2023-11-19T07:14:00;26.70;;;5.65;;
27305;SDS011;14792;50.886;6.468;2023-11-19T07:17:01;31.73;;;4.67;;
27305;SDS011;14792;50.886;6.468;2023-11-19T07:20:03;25.55;;;4.50;;
27305;SDS011;14792;50.886;6.468;2023-11-19T07:23:05;33.23;;;4.97;;
27305;SDS011;14792;50.886;6.468;2023-11-19T07:26:06;26.75;;;5.22;;
27305;SDS011;14792;50.886;6.468;2023-11-19T07:29:11;28.73;;;5.08;;
27305;SDS011;14792;50.886;6.468;2023-11-19T07:32:12;30.68;;;5.10;;
27305;SDS011;14792;50.886;6.468;2023-11-19T07:35:17;30.08;;;5.25;;
27305;SDS011;14792;50.886;6.468;2023-11-19T07:38:19;30.35;;;4.60;;
27305;SDS011;14792;50.886;6.468;2023-11-19T07:41:20;33.00;;;5.45;;
27305;SDS011;14792;50.886;6.468;2023-11-19T07:44:22;31.93;;;4.80;;
27305;SDS011;14792;50.886;6.468;2023-11-19T07:47:24;29.75;;;4.58;;
27305;SDS011;14792;50.886;6.468;2023-11-19T07:50:25;26.77;;;4.97;;
27305;SDS011;14792;50.886;6.468;2023-11-19T07:53:27;32.98;;;4.83;;
27305;SDS011;14792;50.886;6.468;2023-11-19T07:56:28;22.90;;;4.22;;
27305;SDS011;14792;50.886;6.468;2023-11-19T07:59:30;35.38;;;5.62;;
27305;SDS011;14792;50.886;6.468;2023-11-19T08:02:31;26.80;;;4.80;;
27305;SDS011;14792;50.886;6.468;2023-11-19T08:05:33;30.08;;;5.85;;
27305;SDS011;14792;50.886;6.468;2023-11-19T08:08:35;35.43;;;4.75;;
27305;SDS011;14792;50.886;6.468;2023-11-19T08:11:36;29.65;;;5.20;;
27305;SDS011;14792;50.886;6.468;2023-11-19T08:14:38;33.20;;;5.25;;
27305;SDS011;14792;50.886;6.468;2023-11-19T08:17:39;29.85;;;4.72;;
27305;SDS011;14792;50.886;6.468;2023-11-19T08:20:41;37.67;;;4.87;;
27305;SDS011;14792;50.886;6.468;2023-11-19T08:23:43;33.95;;;6.37;;
27305;SDS011;14792;50.886;6.468;2023-11-19T08:26:44;24.00;;;4.92;;
27305;SDS011;14792;50.886;6.468;2023-11-19T08:29:46;27.20;;;4.42;;
27305;SDS011;14792;50.886;6.468;2023-11-19T08:32:47;30.50;;;4.62;;
27305;SDS011;14792;50.886;6.468;2023-11-19T08:35:49;21.95;;;4.67;;
27305;SDS011;14792;50.886;6.468;2023-11-19T08:38:51;24.92;;;5.03;;
27305;SDS011;14792;50.886;6.468;2023-11-19T08:41:52;29.18;;;5.35;;
27305;SDS011;14792;50.886;6.468;2023-11-19T08:44:54;27.20;;;4.42;;
27305;SDS011;14792;50.886;6.468;2023-11-19T08:47:55;29.57;;;5.12;;
27305;SDS011;14792;50.886;6.468;2023-11-19T08:50:57;23.18;;;5.05;;
27305;SDS011;14792;50.886;6.468;2023-11-19T08:53:58;32.65;;;5.28;;
27305;SDS011;14792;50.886;6.468;2023-11-19T08:57:00;23.42;;;5.37;;
27305;SDS011;14792;50.886;6.468;2023-11-19T09:00:02;27.32;;;5.12;;
27305;SDS011;14792;50.886;6.468;2023-11-19T09:03:03;38.88;;;6.35;;
27305;SDS011;14792;50.886;6.468;2023-11-19T09:06:05;27.55;;;5.83;;
27305;SDS011;14792;50.886;6.468;2023-11-19T09:09:06;25.45;;;5.70;;
27305;SDS011;14792;50.886;6.468;2023-11-19T09:12:08;30.90;;;5.58;;
27305;SDS011;14792;50.886;6.468;2023-11-19T09:15:10;27.82;;;5.30;;
27305;SDS011;14792;50.886;6.468;2023-11-19T09:18:11;29.30;;;5.12;;
27305;SDS011;14792;50.886;6.468;2023-11-19T09:21:13;44.75;;;6.50;;
27305;SDS011;14792;50.886;6.468;2023-11-19T09:24:15;30.40;;;7.00;;
27305;SDS011;14792;50.886;6.468;2023-11-19T09:27:16;35.98;;;5.53;;
27305;SDS011;14792;50.886;6.468;2023-11-19T09:33:19;27.60;;;6.25;;
27305;SDS011;14792;50.886;6.468;2023-11-19T09:36:21;33.53;;;5.37;;
27305;SDS011;14792;50.886;6.468;2023-11-19T09:39:22;24.67;;;5.85;;
27305;SDS011;14792;50.886;6.468;2023-11-19T09:42:24;25.00;;;5.10;;
27305;SDS011;14792;50.886;6.468;2023-11-19T09:45:26;31.15;;;5.37;;
27305;SDS011;14792;50.886;6.468;2023-11-19T09:48:27;30.82;;;5.15;;
27305;SDS011;14792;50.886;6.468;2023-11-19T09:51:29;22.10;;;4.55;;
27305;SDS011;14792;50.886;6.468;2023-11-19T09:54:30;30.60;;;5.20;;
27305;SDS011;14792;50.886;6.468;2023-11-19T09:57:32;32.35;;;5.10;;
27305;SDS011;14792;50.886;6.468;2023-11-19T10:00:34;32.00;;;5.17;;
27305;SDS011;14792;50.886;6.468;2023-11-19T10:03:35;26.65;;;5.37;;
27305;SDS011;14792;50.886;6.468;2023-11-19T10:06:39;28.90;;;5.40;;
27305;SDS011;14792;50.886;6.468;2023-11-19T10:09:41;34.92;;;4.80;;
27305;SDS011;14792;50.886;6.468;2023-11-19T10:12:43;32.35;;;4.55;;
27305;SDS011;14792;50.886;6.468;2023-11-19T10:15:44;22.00;;;4.20;;
27305;SDS011;14792;50.886;6.468;2023-11-19T10:18:46;26.35;;;4.70;;
27305;SDS011;14792;50.886;6.468;2023-11-19T10:21:47;23.18;;;4.22;;
27305;SDS011;14792;50.886;6.468;2023-11-19T10:24:49;23.70;;;4.58;;
27305;SDS011;14792;50.886;6.468;2023-11-19T10:27:53;25.77;;;5.45;;
27305;SDS011;14792;50.886;6.468;2023-11-19T10:30:55;20.95;;;4.30;;
27305;SDS011;14792;50.886;6.468;2023-11-19T10:33:54;29.40;;;5.40;;
27305;SDS011;14792;50.886;6.468;2023-11-19T10:36:55;28.47;;;5.37;;
27305;SDS011;14792;50.886;6.468;2023-11-19T10:39:57;24.75;;;4.87;;
27305;SDS011;14792;50.886;6.468;2023-11-19T10:43:02;19.02;;;4.15;;
27305;SDS011;14792;50.886;6.468;2023-11-19T10:46:10;24.02;;;4.87;;
27305;SDS011;14792;50.886;6.468;2023-11-19T10:49:13;31.62;;;5.40;;
27305;SDS011;14792;50.886;6.468;2023-11-19T10:52:17;26.75;;;4.40;;
27305;SDS011;14792;50.886;6.468;2023-11-19T10:55:18;20.40;;;4.20;;
27305;SDS011;14792;50.886;6.468;2023-11-19T10:58:19;18.77;;;3.87;;
27305;SDS011;14792;50.886;6.468;2023-11-19T11:01:21;24.27;;;4.40;;
27305;SDS011;14792;50.886;6.468;2023-11-19T11:04:23;29.63;;;5.42;;
27305;SDS011;14792;50.886;6.468;2023-11-19T11:07:24;22.87;;;4.33;;
27305;SDS011;14792;50.886;6.468;2023-11-19T11:10:26;26.70;;;4.58;;
27305;SDS011;14792;50.886;6.468;2023-11-19T11:13:27;23.05;;;3.70;;
27305;SDS011;14792;50.886;6.468;2023-11-19T11:16:29;27.40;;;4.62;;
27305;SDS011;14792;50.886;6.468;2023-11-19T11:19:31;24.57;;;4.55;;
27305;SDS011;14792;50.886;6.468;2023-11-19T11:22:36;19.30;;;4.25;;
27305;SDS011;14792;50.886;6.468;2023-11-19T11:29:03;19.45;;;4.12;;
27305;SDS011;14792;50.886;6.468;2023-11-19T11:32:10;24.70;;;3.75;;
27305;SDS011;14792;50.886;6.468;2023-11-19T11:35:45;20.90;;;3.58;;
27305;SDS011;14792;50.886;6.468;2023-11-19T11:38:43;21.65;;;4.78;;
27305;SDS011;14792;50.886;6.468;2023-11-19T11:41:44;19.42;;;3.55;;
27305;SDS011;14792;50.886;6.468;2023-11-19T11:45:02;17.62;;;3.60;;
27305;SDS011;14792;50.886;6.468;2023-11-19T11:48:06;18.15;;;4.37;;
27305;SDS011;14792;50.886;6.468;2023-11-19T11:51:13;22.93;;;4.85;;
27305;SDS011;14792;50.886;6.468;2023-11-19T11:57:19;21.10;;;3.52;;
27305;SDS011;14792;50.886;6.468;2023-11-19T12:00:26;26.82;;;4.03;;
27305;SDS011;14792;50.886;6.468;2023-11-19T12:03:28;22.73;;;3.92;;
27305;SDS011;14792;50.886;6.468;2023-11-19T12:06:31;26.25;;;4.45;;
27305;SDS011;14792;50.886;6.468;2023-11-19T12:09:31;23.77;;;4.50;;
27305;SDS011;14792;50.886;6.468;2023-11-19T12:12:32;21.55;;;4.50;;
27305;SDS011;14792;50.886;6.468;2023-11-19T12:16:07;17.00;;;3.77;;
27305;SDS011;14792;50.886;6.468;2023-11-19T12:18:36;15.15;;;3.20;;
27305;SDS011;14792;50.886;6.468;2023-11-19T12:21:37;15.18;;;4.12;;
27305;SDS011;14792;50.886;6.468;2023-11-19T12:24:39;20.17;;;3.50;;
27305;SDS011;14792;50.886;6.468;2023-11-19T12:27:41;18.30;;;3.27;;
27305;SDS011;14792;50.886;6.468;2023-11-19T12:30:42;17.73;;;3.15;;
27305;SDS011;14792;50.886;6.468;2023-11-19T12:33:43;20.60;;;3.98;;
27305;SDS011;14792;50.886;6.468;2023-11-19T12:36:45;17.75;;;3.52;;
27305;SDS011;14792;50.886;6.468;2023-11-19T12:39:52;19.70;;;3.27;;
27305;SDS011;14792;50.886;6.468;2023-11-19T12:42:52;16.00;;;3.77;;
27305;SDS011;14792;50.886;6.468;2023-11-19T12:45:53;18.20;;;4.10;;
27305;SDS011;14792;50.886;6.468;2023-11-19T12:48:54;18.65;;;3.52;;
27305;SDS011;14792;50.886;6.468;2023-11-19T12:51:56;19.25;;;4.20;;
27305;SDS011;14792;50.886;6.468;2023-11-19T12:54:57;18.02;;;4.00;;
27305;SDS011;14792;50.886;6.468;2023-11-19T12:57:59;26.35;;;4.08;;
27305;SDS011;14792;50.886;6.468;2023-11-19T13:04:14;26.68;;;4.58;;
27305;SDS011;14792;50.886;6.468;2023-11-19T13:07:04;23.87;;;4.12;;
27305;SDS011;14792;50.886;6.468;2023-11-19T13:10:05;24.92;;;4.55;;
27305;SDS011;14792;50.886;6.468;2023-11-19T13:13:08;30.97;;;4.33;;
27305;SDS011;14792;50.886;6.468;2023-11-19T13:16:11;25.92;;;4.17;;
27305;SDS011;14792;50.886;6.468;2023-11-19T13:19:13;23.07;;;4.62;;
27305;SDS011;14792;50.886;6.468;2023-11-19T13:22:14;23.10;;;4.67;;
27305;SDS011;14792;50.886;6.468;2023-11-19T13:25:16;22.93;;;3.85;;
27305;SDS011;14792;50.886;6.468;2023-11-19T13:28:18;24.27;;;4.45;;
27305;SDS011;14792;50.886;6.468;2023-11-19T13:31:20;22.20;;;4.40;;
27305;SDS011;14792;50.886;6.468;2023-11-19T13:34:21;26.17;;;4.97;;
27305;SDS011;14792;50.886;6.468;2023-11-19T13:37:23;22.32;;;5.00;;
27305;SDS011;14792;50.886;6.468;2023-11-19T13:40:25;25.15;;;4.47;;
27305;SDS011;14792;50.886;6.468;2023-11-19T13:43:26;19.07;;;4.30;;
27305;SDS011;14792;50.886;6.468;2023-11-19T13:46:31;21.75;;;5.47;;
27305;SDS011;14792;50.886;6.468;2023-11-19T13:49:32;28.85;;;5.10;;
27305;SDS011;14792;50.886;6.468;2023-11-19T13:52:34;22.30;;;5.97;;
27305;SDS011;14792;50.886;6.468;2023-11-19T13:55:35;31.20;;;5.05;;
27305;SDS011;14792;50.886;6.468;2023-11-19T13:58:37;23.85;;;3.92;;
27305;SDS011;14792;50.886;6.468;2023-11-19T14:01:39;21.33;;;4.40;;
27305;SDS011;14792;50.886;6.468;2023-11-19T14:04:40;18.75;;;4.65;;
27305;SDS011;14792;50.886;6.468;2023-11-19T14:07:42;19.73;;;3.80;;
27305;SDS011;14792;50.886;6.468;2023-11-19T14:10:43;26.40;;;4.70;;
27305;SDS011;14792;50.886;6.468;2023-11-19T14:13:45;19.30;;;3.40;;
27305;SDS011;14792;50.886;6.468;2023-11-19T14:16:47;17.80;;;3.40;;
27305;SDS011;14792;50.886;6.468;2023-11-19T14:19:48;24.65;;;4.12;;
27305;SDS011;14792;50.886;6.468;2023-11-19T14:22:50;23.15;;;4.22;;
27305;SDS011;14792;50.886;6.468;2023-11-19T14:25:51;24.12;;;4.28;;
27305;SDS011;14792;50.886;6.468;2023-11-19T14:28:53;26.68;;;4.10;;
27305;SDS011;14792;50.886;6.468;2023-11-19T14:31:55;22.98;;;4.20;;
27305;SDS011;14792;50.886;6.468;2023-11-19T14:34:56;24.72;;;4.12;;
27305;SDS011;14792;50.886;6.468;2023-11-19T14:37:58;22.67;;;4.00;;
27305;SDS011;14792;50.886;6.468;2023-11-19T14:40:59;28.50;;;4.70;;
27305;SDS011;14792;50.886;6.468;2023-11-19T14:44:01;31.02;;;5.05;;
27305;SDS011;14792;50.886;6.468;2023-11-19T14:47:02;25.82;;;4.00;;
27305;SDS011;14792;50.886;6.468;2023-11-19T14:50:04;20.65;;;4.50;;
27305;SDS011;14792;50.886;6.468;2023-11-19T14:53:06;23.45;;;5.05;;
27305;SDS011;14792;50.886;6.468;2023-11-19T14:56:10;32.83;;;4.80;;
27305;SDS011;14792;50.886;6.468;2023-11-19T14:59:09;16.23;;;3.92;;
27305;SDS011;14792;50.886;6.468;2023-11-19T15:02:11;28.00;;;4.20;;
27305;SDS011;14792;50.886;6.468;2023-11-19T15:05:12;14.13;;;3.90;;
27305;SDS011;14792;50.886;6.468;2023-11-19T15:08:14;22.67;;;4.83;;
27305;SDS011;14792;50.886;6.468;2023-11-19T15:11:19;21.90;;;4.12;;
27305;SDS011;14792;50.886;6.468;2023-11-19T15:14:21;23.15;;;4.72;;
27305;SDS011;14792;50.886;6.468;2023-11-19T15:17:22;27.85;;;5.53;;
27305;SDS011;14792;50.886;6.468;2023-11-19T15:20:24;29.77;;;5.03;;
27305;SDS011;14792;50.886;6.468;2023-11-19T15:23:25;27.40;;;3.85;;
27305;SDS011;14792;50.886;6.468;2023-11-19T15:26:27;20.92;;;3.83;;
27305;SDS011;14792;50.886;6.468;2023-11-19T15:29:28;20.20;;;4.37;;
27305;SDS011;14792;50.886;6.468;2023-11-19T15:32:30;22.62;;;4.37;;
27305;SDS011;14792;50.886;6.468;2023-11-19T15:35:32;24.15;;;4.50;;
27305;SDS011;14792;50.886;6.468;2023-11-19T15:38:34;24.85;;;4.67;;
27305;SDS011;14792;50.886;6.468;2023-11-19T15:41:35;30.97;;;5.72;;
27305;SDS011;14792;50.886;6.468;2023-11-19T15:44:37;19.87;;;3.90;;
27305;SDS011;14792;50.886;6.468;2023-11-19T15:47:38;28.07;;;4.47;;
27305;SDS011;14792;50.886;6.468;2023-11-19T15:50:40;21.85;;;4.70;;
27305;SDS011;14792;50.886;6.468;2023-11-19T15:53:41;28.55;;;5.28;;
27305;SDS011;14792;50.886;6.468;2023-11-19T15:56:43;25.48;;;4.58;;
27305;SDS011;14792;50.886;6.468;2023-11-19T15:59:44;29.10;;;4.47;;
27305;SDS011;14792;50.886;6.468;2023-11-19T16:02:46;25.40;;;4.12;;
27305;SDS011;14792;50.886;6.468;2023-11-19T16:05:50;26.30;;;4.40;;
27305;SDS011;14792;50.886;6.468;2023-11-19T16:08:52;23.95;;;4.60;;
27305;SDS011;14792;50.886;6.468;2023-11-19T16:11:53;29.75;;;5.55;;
27305;SDS011;14792;50.886;6.468;2023-11-19T16:14:55;27.50;;;4.35;;
27305;SDS011;14792;50.886;6.468;2023-11-19T16:17:57;22.52;;;3.92;;
27305;SDS011;14792;50.886;6.468;2023-11-19T16:20:58;22.93;;;4.08;;
27305;SDS011;14792;50.886;6.468;2023-11-19T16:24:03;21.65;;;4.33;;
27305;SDS011;14792;50.886;6.468;2023-11-19T16:27:01;28.52;;;4.75;;
27305;SDS011;14792;50.886;6.468;2023-11-19T16:30:03;22.48;;;2.92;;
27305;SDS011;14792;50.886;6.468;2023-11-19T16:33:05;23.47;;;3.95;;
27305;SDS011;14792;50.886;6.468;2023-11-19T16:36:06;29.10;;;4.75;;
27305;SDS011;14792;50.886;6.468;2023-11-19T16:39:08;29.18;;;4.90;;
27305;SDS011;14792;50.886;6.468;2023-11-19T16:42:09;21.68;;;4.60;;
27305;SDS011;14792;50.886;6.468;2023-11-19T16:45:11;22.27;;;4.35;;
27305;SDS011;14792;50.886;6.468;2023-11-19T16:48:13;22.50;;;4.72;;
27305;SDS011;14792;50.886;6.468;2023-11-19T16:51:14;32.73;;;4.42;;
27305;SDS011;14792;50.886;6.468;2023-11-19T16:54:17;21.12;;;4.83;;
27305;SDS011;14792;50.886;6.468;2023-11-19T16:57:18;24.98;;;4.62;;
27305;SDS011;14792;50.886;6.468;2023-11-19T17:00:20;30.32;;;5.70;;
27305;SDS011;14792;50.886;6.468;2023-11-19T17:03:22;23.07;;;4.20;;
27305;SDS011;14792;50.886;6.468;2023-11-19T17:06:23;22.73;;;4.22;;
27305;SDS011;14792;50.886;6.468;2023-11-19T17:09:25;28.77;;;5.47;;
27305;SDS011;14792;50.886;6.468;2023-11-19T17:12:26;21.62;;;4.90;;
27305;SDS011;14792;50.886;6.468;2023-11-19T17:15:28;25.48;;;4.70;;
27305;SDS011;14792;50.886;6.468;2023-11-19T17:18:30;32.00;;;5.55;;
27305;SDS011;14792;50.886;6.468;2023-11-19T17:21:31;24.75;;;4.75;;
27305;SDS011;14792;50.886;6.468;2023-11-19T17:24:33;24.98;;;4.83;;
27305;SDS011;14792;50.886;6.468;2023-11-19T17:27:35;24.70;;;4.62;;
27305;SDS011;14792;50.886;6.468;2023-11-19T17:30:36;25.15;;;4.25;;
27305;SDS011;14792;50.886;6.468;2023-11-19T17:33:38;23.67;;;4.90;;
27305;SDS011;14792;50.886;6.468;2023-11-19T17:36:39;19.90;;;4.30;;
27305;SDS011;14792;50.886;6.468;2023-11-19T17:39:41;31.37;;;5.05;;
27305;SDS011;14792;50.886;6.468;2023-11-19T17:42:42;18.85;;;4.12;;
27305;SDS011;14792;50.886;6.468;2023-11-19T17:45:44;20.80;;;4.15;;
27305;SDS011;14792;50.886;6.468;2023-11-19T17:48:45;20.20;;;4.35;;
27305;SDS011;14792;50.886;6.468;2023-11-19T17:51:47;19.48;;;3.45;;
27305;SDS011;14792;50.886;6.468;2023-11-19T17:54:50;21.17;;;4.40;;
27305;SDS011;14792;50.886;6.468;2023-11-19T17:57:52;20.40;;;4.33;;
27305;SDS011;14792;50.886;6.468;2023-11-19T18:00:53;27.17;;;4.37;;
27305;SDS011;14792;50.886;6.468;2023-11-19T18:03:55;23.77;;;3.62;;
27305;SDS011;14792;50.886;6.468;2023-11-19T18:06:57;21.00;;;3.50;;
27305;SDS011;14792;50.886;6.468;2023-11-19T18:09:58;19.67;;;4.47;;
27305;SDS011;14792;50.886;6.468;2023-11-19T18:13:00;23.83;;;4.40;;
27305;SDS011;14792;50.886;6.468;2023-11-19T18:16:01;21.15;;;3.90;;
27305;SDS011;14792;50.886;6.468;2023-11-19T18:19:03;18.52;;;3.75;;